Time;durP1;ratioP1;P1;durP2;ratioP2;P2;SDS_P1;SDS_P2;PMS_P1;PMS_P2;Temp;Humidity;BMP_temperature;BMP_pressure;BME280_temperature;BME280_humidity;BME280_pressure;Samples;Min_cycle;Max_cycle;Signal;HPM_P1;HPM_P2
2022/02/04 00:08:02;;;;;;;5.50;4.90;;;9.80;99.90;;;;;;5094548;28;20223;-62
2022/02/04 00:21:43;;;;;;;5.37;4.33;;;9.50;99.90;;;;;;5094648;28;20244;-65
2022/02/04 00:24:13;;;;;;;4.80;4.30;;;9.50;99.90;;;;;;5094595;28;20212;-63
2022/02/04 00:26:45;;;;;;;5.03;4.53;;;9.60;99.90;;;;;;5094462;28;20323;-63
2022/02/04 00:29:17;;;;;;;4.90;4.30;;;9.60;99.90;;;;;;5095799;28;20599;-63
2022/02/04 00:31:48;;;;;;;5.20;4.70;;;9.50;99.90;;;;;;5095010;28;20264;-63
2022/02/04 00:34:18;;;;;;;6.43;4.57;;;9.40;99.90;;;;;;5094551;28;20215;-63
2022/02/04 00:36:52;;;;;;;5.27;4.20;;;9.40;99.90;;;;;;5094358;28;20297;-63
2022/02/04 00:39:24;;;;;;;5.43;4.37;;;9.50;99.90;;;;;;5094396;28;20215;-63
2022/02/04 00:41:51;;;;;;;6.10;4.20;;;9.50;99.90;;;;;;5094604;28;20286;-63
2022/02/04 00:44:22;;;;;;;5.33;4.20;;;9.60;99.90;;;;;;5094392;28;20201;-64
2022/02/04 00:47:01;;;;;;;5.10;4.33;;;9.60;99.90;;;;;;5093570;28;20572;-63
2022/02/04 00:49:40;;;;;;;5.97;4.80;;;9.50;99.90;;;;;;5093874;28;20224;-64
2022/02/04 00:52:16;;;;;;;5.23;4.70;;;9.40;99.90;;;;;;5094224;28;20208;-63
2022/02/04 00:54:51;;;;;;;6.13;4.97;;;9.40;99.90;;;;;;5094213;28;20683;-63
2022/02/04 00:57:33;;;;;;;5.00;4.47;;;9.50;99.90;;;;;;5093591;28;20348;-63
2022/02/04 01:25:54;;;;;;;6.80;4.77;;;9.50;99.90;;;;;;5093651;28;20199;-63
2022/02/04 01:27:27;;;;;;;5.10;4.30;;;9.70;99.90;;;;;;5092820;28;20265;-63
2022/02/04 01:30:00;;;;;;;5.23;4.40;;;9.80;99.90;;;;;;5093201;28;20228;-63
2022/02/04 01:32:27;;;;;;;5.20;4.60;;;9.80;99.90;;;;;;5093221;28;20208;-63
2022/02/04 01:34:54;;;;;;;5.27;4.77;;;9.80;99.90;;;;;;5093231;28;20200;-63
2022/02/04 01:37:21;;;;;;;4.90;4.20;;;9.80;99.90;;;;;;5092621;28;20223;-63
2022/02/04 01:39:49;;;;;;;5.70;4.73;;;9.70;99.90;;;;;;5093190;28;20279;-63
2022/02/04 01:42:16;;;;;;;5.27;4.53;;;9.80;99.90;;;;;;5093250;28;20208;-63
2022/02/04 01:44:43;;;;;;;6.53;4.43;;;9.90;99.90;;;;;;5093073;28;20211;-63
2022/02/04 01:47:10;;;;;;;5.47;4.30;;;10.00;99.90;;;;;;5092464;28;20704;-63
2022/02/04 01:49:37;;;;;;;6.13;4.63;;;10.10;99.90;;;;;;5092717;28;20227;-63
2022/02/04 01:52:04;;;;;;;5.00;4.40;;;10.00;99.90;;;;;;5092787;28;20295;-63
2022/02/04 01:54:31;;;;;;;6.13;4.70;;;10.10;99.90;;;;;;5092735;28;20694;-63
2022/02/04 01:56:59;;;;;;;5.67;4.50;;;10.10;99.90;;;;;;5092214;28;20232;-64
2022/02/04 01:59:26;;;;;;;5.00;4.50;;;10.00;99.90;;;;;;5092699;28;20208;-64
2022/02/04 02:01:52;;;;;;;11.23;6.53;;;10.10;99.90;;;;;;5092689;28;20212;-63
2022/02/04 02:04:19;;;;;;;7.17;4.90;;;10.10;99.90;;;;;;5092565;28;20265;-63
2022/02/04 02:06:50;;;;;;;8.10;4.50;;;10.10;99.90;;;;;;5092122;28;20239;-63
2022/02/04 02:09:18;;;;;;;5.80;4.30;;;10.10;99.90;;;;;;5092453;28;20223;-63
2022/02/04 02:11:48;;;;;;;4.77;4.00;;;10.00;99.90;;;;;;5092280;28;20561;-63
2022/02/04 02:14:17;;;;;;;5.70;4.20;;;10.00;99.90;;;;;;5092421;28;20236;-63
2022/02/04 02:32:57;;;;;;;5.27;4.03;;;9.90;99.90;;;;;;5091868;28;20711;-63
2022/02/04 02:36:41;;;;;;;6.53;3.30;;;9.80;99.90;;;;;;5091183;28;20220;-63
2022/02/04 02:39:24;;;;;;;3.50;2.63;;;9.70;99.90;;;;;;5091696;28;20207;-64
2022/02/04 02:42:19;;;;;;;4.30;2.90;;;9.70;99.90;;;;;;5091913;28;20200;-63
2022/02/04 02:44:53;;;;;;;6.30;3.37;;;9.70;99.90;;;;;;5092185;28;20226;-63
2022/02/04 02:47:32;;;;;;;4.10;3.50;;;9.70;99.90;;;;;;5091760;28;20235;-63
2022/02/04 02:50:21;;;;;;;3.73;3.20;;;9.70;99.90;;;;;;5091770;28;20695;-64
2022/02/04 02:55:37;;;;;;;3.90;3.40;;;9.50;99.90;;;;;;5088955;28;20566;-63
2022/02/04 02:58:08;;;;;;;3.80;3.17;;;9.50;99.90;;;;;;5091856;28;20192;-63
2022/02/04 03:00:48;;;;;;;3.60;3.17;;;9.50;99.90;;;;;;5091897;28;20227;-63
2022/02/04 03:03:18;;;;;;;5.97;3.37;;;9.40;99.90;;;;;;5092182;28;20203;-63
2022/02/04 03:05:44;;;;;;;3.87;3.37;;;9.40;99.90;;;;;;5091855;28;20214;-63
2022/02/04 03:08:11;;;;;;;5.73;3.70;;;9.40;99.90;;;;;;5091720;28;20670;-63
2022/02/04 03:10:40;;;;;;;4.00;3.13;;;9.50;99.90;;;;;;5094739;28;20228;-63
2022/02/04 03:13:07;;;;;;;4.43;3.90;;;9.50;99.90;;;;;;5095851;28;20671;-63
2022/02/04 03:15:35;;;;;;;3.37;3.07;;;9.40;99.90;;;;;;5096464;28;20216;-63
2022/02/04 03:18:05;;;;;;;5.17;3.33;;;9.40;99.90;;;;;;5096084;28;20298;-63
2022/02/04 03:20:40;;;;;;;4.70;3.30;;;9.40;99.90;;;;;;5096010;28;20200;-63
2022/02/04 03:23:07;;;;;;;4.10;3.67;;;9.40;99.90;;;;;;5095847;28;20511;-63
2022/02/04 03:25:38;;;;;;;3.97;3.10;;;9.40;99.90;;;;;;5095559;28;20224;-63
2022/02/04 03:28:12;;;;;;;4.03;3.43;;;9.40;99.90;;;;;;5095302;28;20775;-63
2022/02/04 03:30:40;;;;;;;7.47;3.80;;;9.40;99.90;;;;;;5095513;28;20301;-63
2022/02/04 03:33:08;;;;;;;3.73;3.27;;;9.40;99.90;;;;;;5095540;28;20239;-63
2022/02/04 03:35:35;;;;;;;3.90;3.50;;;9.40;99.90;;;;;;5095203;28;20582;-63
2022/02/04 03:38:01;;;;;;;4.33;3.80;;;9.40;99.90;;;;;;5095014;28;20208;-63
2022/02/04 03:40:29;;;;;;;5.37;3.70;;;9.30;99.90;;;;;;5095156;28;20201;-63
2022/02/04 03:42:55;;;;;;;4.03;3.53;;;9.30;99.90;;;;;;5095290;28;20211;-63
2022/02/04 03:45:24;;;;;;;4.63;3.77;;;9.30;99.90;;;;;;5095679;28;20208;-63
2022/02/04 03:47:51;;;;;;;5.77;3.60;;;9.40;99.90;;;;;;5094925;28;20228;-64
2022/02/04 03:50:18;;;;;;;4.87;3.73;;;9.40;99.90;;;;;;5095034;28;20224;-64
2022/02/04 03:52:45;;;;;;;4.33;3.73;;;9.30;99.90;;;;;;5094880;28;20686;-63
2022/02/04 03:55:12;;;;;;;4.97;3.93;;;9.30;99.90;;;;;;5095173;28;20231;-63
2022/02/04 03:57:39;;;;;;;4.63;3.53;;;9.30;99.90;;;;;;5094818;28;20231;-63
2022/02/04 04:00:08;;;;;;;4.33;3.30;;;9.20;99.90;;;;;;5095034;28;20414;-63
2022/02/04 04:02:36;;;;;;;3.90;3.50;;;9.20;99.90;;;;;;5094837;28;20212;-63
2022/02/04 04:05:03;;;;;;;3.50;3.20;;;9.20;99.90;;;;;;5094810;28;20204;-63
2022/02/04 04:07:30;;;;;;;4.83;3.70;;;9.20;99.90;;;;;;5094333;28;20224;-63
2022/02/04 04:10:04;;;;;;;4.23;3.80;;;9.20;99.90;;;;;;5094787;28;20282;-63
2022/02/04 04:12:31;;;;;;;4.30;3.50;;;9.20;99.90;;;;;;5094733;28;20208;-63
2022/02/04 04:15:04;;;;;;;4.33;3.90;;;9.20;99.90;;;;;;5094925;28;20212;-63
2022/02/04 04:17:37;;;;;;;4.17;3.63;;;9.30;99.90;;;;;;5094458;28;20235;-63
2022/02/04 04:20:07;;;;;;;4.60;3.90;;;9.30;99.90;;;;;;5094238;28;20235;-63
2022/02/04 04:22:34;;;;;;;5.40;3.80;;;9.30;99.90;;;;;;5094666;28;20208;-62
2022/02/04 04:25:00;;;;;;;4.73;3.90;;;9.30;99.90;;;;;;5094623;28;20201;-63
2022/02/04 04:27:27;;;;;;;7.50;4.07;;;9.40;99.90;;;;;;5094073;28;20273;-63
2022/02/04 04:29:54;;;;;;;4.40;3.77;;;9.30;99.90;;;;;;5094282;28;20273;-63
2022/02/04 04:32:20;;;;;;;5.27;4.03;;;9.30;99.90;;;;;;5094299;28;20212;-63
2022/02/04 04:34:47;;;;;;;4.93;4.07;;;9.30;99.90;;;;;;5094386;28;20737;-62
2022/02/04 04:37:15;;;;;;;6.90;4.20;;;9.40;99.90;;;;;;5093996;28;20235;-63
2022/02/04 04:39:53;;;;;;;5.53;4.17;;;9.40;99.90;;;;;;5094296;28;20227;-62
2022/02/04 04:42:30;;;;;;;4.73;4.03;;;9.40;99.90;;;;;;5094092;28;20672;-64
2022/02/04 04:45:16;;;;;;;5.33;3.90;;;9.40;99.90;;;;;;5094380;28;20200;-63
2022/02/04 05:27:02;;;;;;;4.30;3.67;;;9.20;99.90;;;;;;5080698;28;20334;-62
2022/02/04 05:29:27;;;;;;;5.97;3.80;;;9.20;99.90;;;;;;5092967;28;20204;-61
2022/02/04 05:31:53;;;;;;;4.13;3.63;;;9.10;99.90;;;;;;5092510;28;20224;-61
2022/02/04 05:34:21;;;;;;;5.77;3.77;;;9.20;99.90;;;;;;5092950;28;20622;-62
2022/02/04 05:36:54;;;;;;;5.10;4.10;;;9.20;99.90;;;;;;5092859;28;20204;-61
2022/02/04 05:39:26;;;;;;;6.03;4.73;;;9.20;99.90;;;;;;5093015;28;20307;-62
2022/02/04 05:41:54;;;;;;;6.40;4.80;;;9.30;99.90;;;;;;5092896;28;20196;-61
2022/02/04 05:44:21;;;;;;;8.23;5.77;;;9.30;99.90;;;;;;5092980;28;20258;-62
2022/02/04 05:46:51;;;;;;;7.77;4.83;;;9.30;99.90;;;;;;5092487;28;20710;-62
2022/02/04 05:49:21;;;;;;;6.80;4.50;;;9.30;99.90;;;;;;5092919;28;20200;-61
2022/02/04 05:51:56;;;;;;;7.70;4.70;;;9.30;99.90;;;;;;5092663;28;20273;-61
2022/02/04 05:54:35;;;;;;;6.27;4.47;;;9.20;99.90;;;;;;5092983;28;20211;-62
2022/02/04 05:57:09;;;;;;;9.17;4.40;;;9.20;99.90;;;;;;5092484;28;20277;-61
2022/02/04 05:59:55;;;;;;;8.13;4.50;;;9.20;99.90;;;;;;5092613;28;20265;-61
2022/02/04 06:02:29;;;;;;;5.73;5.13;;;9.20;99.90;;;;;;5092615;28;20749;-61
2022/02/04 06:05:02;;;;;;;5.57;3.97;;;9.30;99.90;;;;;;5092400;28;20579;-62
2022/02/04 06:07:36;;;;;;;4.73;4.23;;;9.20;99.90;;;;;;5092036;28;20281;-62
2022/02/04 06:10:26;;;;;;;5.40;4.90;;;9.30;99.90;;;;;;5092369;28;20211;-62
2022/02/04 06:23:44;;;;;;;10.60;6.13;;;9.00;99.90;;;;;;5092272;28;20230;-61
2022/02/04 06:26:11;;;;;;;5.80;3.87;;;9.00;99.90;;;;;;5092350;28;20212;-62
2022/02/04 06:28:41;;;;;;;6.40;3.50;;;9.00;99.90;;;;;;5091823;28;20224;-62
2022/02/04 06:31:08;;;;;;;6.47;3.80;;;9.00;99.90;;;;;;5091839;28;20227;-61
2022/02/04 06:33:35;;;;;;;5.73;3.87;;;8.90;99.90;;;;;;5092134;28;20231;-61
2022/02/04 06:36:02;;;;;;;4.90;3.77;;;8.90;99.90;;;;;;5092120;28;20305;-62
2022/02/04 06:38:29;;;;;;;4.10;3.50;;;8.90;99.90;;;;;;5091758;28;20227;-61
2022/02/04 06:40:55;;;;;;;5.07;3.30;;;8.80;99.90;;;;;;5092092;28;20211;-61
2022/02/04 06:43:22;;;;;;;6.03;3.67;;;8.80;99.90;;;;;;5091638;28;20207;-62
2022/02/04 06:45:50;;;;;;;5.33;4.23;;;8.90;99.90;;;;;;5091903;28;20568;-61
2022/02/04 06:48:17;;;;;;;5.73;3.83;;;8.90;99.90;;;;;;5091679;28;20228;-61
2022/02/04 06:50:44;;;;;;;5.03;3.23;;;9.00;99.90;;;;;;5091948;28;20513;-61
2022/02/04 06:53:11;;;;;;;3.67;3.27;;;9.00;99.90;;;;;;5092017;28;20225;-61
2022/02/04 06:55:37;;;;;;;5.67;3.40;;;9.00;99.90;;;;;;5091940;28;20201;-61
2022/02/04 06:58:04;;;;;;;6.07;3.50;;;9.00;99.90;;;;;;5091548;28;20300;-62
2022/02/04 07:00:31;;;;;;;9.73;4.03;;;9.10;99.90;;;;;;5091715;28;20687;-61
2022/02/04 07:02:59;;;;;;;6.57;3.53;;;9.10;99.90;;;;;;5091574;28;20204;-61
2022/02/04 07:05:26;;;;;;;6.27;3.30;;;9.10;99.90;;;;;;5091923;28;20204;-61
2022/02/04 07:08:03;;;;;;;6.90;3.27;;;9.00;99.90;;;;;;5091562;28;20681;-61
2022/02/04 07:10:37;;;;;;;5.37;3.33;;;9.00;99.90;;;;;;5091773;28;20204;-61
2022/02/04 07:13:13;;;;;;;7.43;3.53;;;9.00;99.90;;;;;;5091736;28;20749;-61
2022/02/04 07:21:09;;;;;;;4.93;3.60;;;8.90;99.90;;;;;;5091750;28;20215;-62
2022/02/04 07:23:37;;;;;;;3.50;3.07;;;8.90;99.90;;;;;;5091788;28;20628;-61
2022/02/04 07:26:04;;;;;;;5.60;4.77;;;8.90;99.90;;;;;;5091498;28;20262;-60
2022/02/04 07:28:31;;;;;;;4.53;3.70;;;9.00;99.90;;;;;;5091418;28;20236;-60
2022/02/04 07:31:00;;;;;;;5.00;4.47;;;9.10;99.90;;;;;;5091382;28;20259;-61
2022/02/04 07:33:40;;;;;;;4.37;2.97;;;9.10;99.90;;;;;;5091429;28;20704;-61
2022/02/04 07:41:35;;;;;;;3.87;3.20;;;9.40;99.90;;;;;;5091576;28;20684;-61
2022/02/04 07:44:02;;;;;;;4.67;3.10;;;9.40;99.90;;;;;;5091195;28;20648;-61
2022/02/04 07:46:29;;;;;;;5.23;4.40;;;9.40;99.90;;;;;;5090547;28;20211;-61
2022/02/04 07:48:57;;;;;;;5.40;4.50;;;9.40;99.90;;;;;;5091761;28;20569;-61
2022/02/04 07:51:24;;;;;;;4.77;3.90;;;9.50;99.90;;;;;;5091412;28;20224;-60
2022/02/04 07:53:51;;;;;;;5.70;4.40;;;9.60;99.90;;;;;;5091376;28;20212;-60
2022/02/04 07:56:21;;;;;;;5.40;4.83;;;9.70;99.90;;;;;;5093099;28;20691;-61
2022/02/04 07:58:55;;;;;;;5.00;4.50;;;9.70;99.90;;;;;;5094717;28;20273;-61
2022/02/04 08:01:26;;;;;;;8.80;5.63;;;9.70;99.90;;;;;;5095235;28;20243;-62
2022/02/04 08:03:58;;;;;;;4.93;4.43;;;9.70;99.90;;;;;;5094695;28;20204;-60
2022/02/04 08:06:28;;;;;;;6.07;4.60;;;9.80;99.90;;;;;;5094526;28;20236;-62
2022/02/04 08:09:01;;;;;;;5.60;4.00;;;9.80;99.90;;;;;;5094990;28;20200;-61
2022/02/04 08:11:47;;;;;;;9.53;6.30;;;9.90;99.90;;;;;;5094506;28;20639;-61
2022/02/04 08:14:21;;;;;;;6.07;4.27;;;9.80;99.90;;;;;;5094958;28;20208;-61
2022/02/04 08:25:30;;;;;;;7.50;4.00;;;9.60;99.90;;;;;;5094624;28;20671;-61
2022/02/04 08:30:57;;;;;;;5.47;3.70;;;9.60;99.90;;;;;;5079863;28;20343;-63
2022/02/04 08:36:51;;;;;;;4.40;3.77;;;9.00;99.90;;;;;;5089070;27;20600;-63
2022/02/04 08:48:06;;;;;;;6.20;3.87;;;9.50;99.90;;;;;;5109427;28;20218;-71
2022/02/04 08:53:46;;;;;;;4.40;3.70;;;9.80;99.90;;;;;;5121670;22;20600;-64
2022/02/04 08:56:15;;;;;;;4.47;3.73;;;10.00;99.90;;;;;;5089437;28;20219;-61
2022/02/04 08:58:48;;;;;;;4.67;3.97;;;10.30;99.90;;;;;;5089370;28;20291;-63
2022/02/04 09:01:20;;;;;;;5.27;3.63;;;10.50;99.90;;;;;;5089214;28;20261;-63
2022/02/04 09:03:52;;;;;;;3.43;3.13;;;10.50;99.90;;;;;;5089750;28;20266;-64
2022/02/04 09:06:23;;;;;;;4.47;3.30;;;10.60;99.90;;;;;;5089481;28;20207;-64
2022/02/04 09:08:53;;;;;;;4.77;3.93;;;10.50;99.90;;;;;;5089666;28;20208;-63
2022/02/04 09:11:38;;;;;;;4.13;3.20;;;10.40;99.90;;;;;;5089438;28;20203;-64
2022/02/04 09:17:12;;;;;;;4.03;3.30;;;10.50;99.90;;;;;;5089146;28;20203;-64
2022/02/04 09:19:59;;;;;;;3.83;3.10;;;10.60;99.90;;;;;;5089381;28;20208;-65
2022/02/04 09:22:39;;;;;;;5.07;3.60;;;10.60;99.90;;;;;;5089978;28;20289;-65
2022/02/04 09:25:07;;;;;;;3.27;2.77;;;10.70;99.90;;;;;;5089293;28;20208;-64
2022/02/04 09:27:35;;;;;;;4.87;2.97;;;10.90;99.90;;;;;;5088875;28;20261;-63
2022/02/04 09:30:03;;;;;;;4.53;3.40;;;11.00;99.90;;;;;;5088950;28;20204;-65
2022/02/04 09:32:30;;;;;;;4.20;3.40;;;11.20;99.90;;;;;;5088977;28;20229;-64
2022/02/04 09:34:57;;;;;;;5.70;3.77;;;11.40;99.90;;;;;;5089144;28;20200;-64
2022/02/04 09:37:24;;;;;;;4.73;3.80;;;11.60;99.90;;;;;;5088952;28;20200;-65
2022/02/04 09:39:50;;;;;;;5.50;3.40;;;11.70;99.90;;;;;;5089017;28;20208;-64
2022/02/04 09:42:17;;;;;;;4.57;3.47;;;11.90;99.90;;;;;;5088354;28;20236;-65
2022/02/04 09:44:43;;;;;;;5.53;3.03;;;12.10;99.90;;;;;;5088749;28;20699;-65
2022/02/04 09:47:18;;;;;;;3.40;3.03;;;12.20;99.90;;;;;;5088262;28;20211;-65
2022/02/04 09:49:49;;;;;;;3.33;2.90;;;12.40;99.90;;;;;;5089079;28;20200;-65
2022/02/04 10:09:06;;;;;;;2.90;2.30;;;13.30;99.90;;;;;;5075055;28;20242;-63
2022/02/04 10:14:35;;;;;;;4.57;2.40;;;13.70;99.90;;;;;;5073910;28;20316;-63
2022/02/04 10:17:09;;;;;;;2.67;2.20;;;13.90;99.90;;;;;;5074682;28;20297;-64
2022/02/04 10:19:49;;;;;;;2.80;2.50;;;13.90;99.90;;;;;;5074976;28;20235;-62
2022/02/04 10:22:18;;;;;;;2.50;2.00;;;13.80;99.90;;;;;;5074771;28;20235;-62
2022/02/04 10:24:55;;;;;;;2.60;2.40;;;13.60;99.90;;;;;;5071946;28;20243;-62
2022/02/04 10:27:23;;;;;;;4.50;2.50;;;13.20;99.90;;;;;;5074759;28;20708;-62
2022/02/04 10:29:54;;;;;;;3.30;2.70;;;12.90;99.90;;;;;;5074736;28;20205;-61
2022/02/04 10:32:25;;;;;;;2.80;2.50;;;12.90;99.90;;;;;;5074535;28;20220;-63
2022/02/04 10:35:02;;;;;;;2.50;2.30;;;13.00;99.90;;;;;;5074793;28;20205;-63
2022/02/04 10:37:31;;;;;;;6.80;2.87;;;13.00;99.90;;;;;;5074252;28;20204;-63
2022/02/04 10:40:09;;;;;;;2.77;1.60;;;13.00;99.90;;;;;;5074544;28;20235;-62
2022/02/04 10:42:43;;;;;;;7.13;3.30;;;13.10;99.90;;;;;;5073667;28;20240;-64
2022/02/04 10:45:33;;;;;;;1.87;1.27;;;13.20;99.90;;;;;;5073989;28;20291;-64
2022/02/04 11:02:08;;;;;;;2.63;1.70;;;13.00;99.90;;;;;;5073152;28;20633;-65
2022/02/04 11:04:41;;;;;;;2.03;1.77;;;12.90;99.90;;;;;;5072512;28;20580;-66
2022/02/04 11:07:25;;;;;;;2.57;1.70;;;12.90;99.90;;;;;;5073437;28;20213;-65
2022/02/04 11:10:05;;;;;;;3.20;2.00;;;12.90;99.90;;;;;;5073658;28;20209;-64
2022/02/04 11:35:15;;;;;;;3.73;1.13;;;12.70;99.90;;;;;;5028840;28;20193;-64
2022/02/04 11:43:52;;;;;;;4.50;1.30;;;13.10;99.90;;;;;;5072605;28;20231;-62
2022/02/04 11:52:05;;;;;;;4.93;1.80;;;13.20;99.90;;;;;;5072736;28;20200;-64
2022/02/04 11:54:51;;;;;;;3.70;2.00;;;13.10;99.90;;;;;;5072764;28;20205;-63
2022/02/04 11:57:22;;;;;;;2.40;1.40;;;13.20;99.90;;;;;;5072020;28;20719;-63
2022/02/04 11:59:52;;;;;;;2.90;1.07;;;13.00;99.90;;;;;;5072496;28;20266;-63
2022/02/04 12:02:39;;;;;;;2.73;1.30;;;13.00;99.90;;;;;;5072108;28;20236;-63
2022/02/04 12:05:27;;;;;;;1.20;1.03;;;12.90;99.90;;;;;;5072597;28;20209;-64
2022/02/04 12:07:57;;;;;;;1.83;1.10;;;12.90;99.90;;;;;;5063706;28;20254;-65
2022/02/04 12:10:26;;;;;;;2.80;1.30;;;12.80;99.90;;;;;;5072364;28;20569;-63
2022/02/04 12:13:09;;;;;;;2.17;1.33;;;12.60;99.90;;;;;;5071929;28;20290;-64
2022/02/04 12:15:37;;;;;;;2.93;1.10;;;12.40;99.90;;;;;;5072085;28;20224;-64
2022/02/04 12:18:05;;;;;;;2.77;1.67;;;12.30;99.90;;;;;;5071978;28;20684;-64
2022/02/04 12:20:55;;;;;;;1.67;1.30;;;12.20;99.90;;;;;;5072226;28;20664;-64
2022/02/04 12:23:46;;;;;;;3.83;2.43;;;12.20;99.90;;;;;;5072419;28;20754;-64
2022/02/04 12:26:19;;;;;;;3.87;1.10;;;12.20;99.90;;;;;;5072443;28;20205;-63
2022/02/04 12:28:49;;;;;;;1.30;1.00;;;12.20;99.90;;;;;;5072093;28;20680;-63
2022/02/04 12:31:20;;;;;;;1.03;0.87;;;12.10;99.90;;;;;;5072028;28;20205;-64
2022/02/04 12:33:48;;;;;;;2.03;1.20;;;12.10;99.90;;;;;;5071739;28;20598;-62
2022/02/04 12:36:17;;;;;;;0.90;0.90;;;11.90;99.90;;;;;;5072753;28;20210;-62
2022/02/04 12:38:45;;;;;;;1.57;1.20;;;11.80;99.90;;;;;;5071984;28;20219;-63
2022/02/04 12:41:22;;;;;;;2.97;1.73;;;11.80;99.90;;;;;;5072084;28;20228;-64
2022/02/04 12:43:53;;;;;;;3.60;2.30;;;11.90;99.90;;;;;;5072053;28;20233;-63
2022/02/04 12:46:21;;;;;;;1.87;1.30;;;12.00;99.90;;;;;;5072116;28;20207;-65
2022/02/04 12:49:05;;;;;;;3.47;1.43;;;12.10;99.90;;;;;;5072164;28;20216;-65
2022/02/04 12:51:44;;;;;;;1.20;1.10;;;12.30;99.90;;;;;;5072247;28;20201;-65
2022/02/04 12:54:12;;;;;;;3.77;1.97;;;12.40;99.90;;;;;;5071954;28;20583;-65
2022/02/04 12:56:42;;;;;;;1.40;1.07;;;12.30;99.90;;;;;;5071858;28;20231;-66
2022/02/04 12:59:53;;;;;;;1.43;0.90;;;12.30;99.90;;;;;;5072311;28;20231;-65
2022/02/04 13:02:34;;;;;;;1.30;0.77;;;12.20;99.90;;;;;;5072048;28;20229;-65
2022/02/04 13:07:52;;;;;;;1.10;0.70;;;12.20;99.90;;;;;;5072082;28;20204;-63
2022/02/04 13:10:24;;;;;;;2.23;1.03;;;12.10;99.90;;;;;;5072320;28;20304;-63
2022/02/04 13:12:59;;;;;;;2.40;1.00;;;12.10;99.90;;;;;;5072512;28;20731;-63
2022/02/04 13:15:28;;;;;;;1.03;0.93;;;12.20;99.90;;;;;;5072221;28;20208;-63
2022/02/04 13:17:57;;;;;;;2.07;0.73;;;12.20;99.90;;;;;;5072120;28;20292;-63
2022/02/04 13:20:24;;;;;;;2.40;1.50;;;12.20;99.90;;;;;;5072185;28;20290;-62
2022/02/04 13:22:53;;;;;;;4.37;2.37;;;12.20;99.90;;;;;;5071977;28;20240;-63
2022/02/04 13:25:22;;;;;;;6.03;2.40;;;12.10;99.90;;;;;;5072067;28;20595;-63
2022/02/04 13:28:10;;;;;;;2.17;1.50;;;12.00;99.90;;;;;;5073465;28;20590;-65
2022/02/04 13:30:41;;;;;;;1.87;1.10;;;12.00;99.90;;;;;;5075875;28;20653;-63
2022/02/04 13:33:21;;;;;;;1.83;1.20;;;11.90;99.90;;;;;;5076128;28;20256;-64
2022/02/04 13:35:59;;;;;;;1.90;1.23;;;11.80;99.90;;;;;;5075515;28;20676;-63
2022/02/04 13:38:36;;;;;;;4.10;2.50;;;11.80;99.90;;;;;;5075011;28;20205;-62
2022/02/04 13:41:19;;;;;;;1.63;1.23;;;11.80;99.90;;;;;;5075528;28;20204;-63
2022/02/04 13:44:08;;;;;;;20.37;14.30;;;11.70;99.90;;;;;;5075288;28;20228;-63
2022/02/04 13:46:42;;;;;;;2.67;1.43;;;11.90;99.90;;;;;;5075510;28;20209;-64
2022/02/04 13:52:04;;;;;;;2.83;1.30;;;11.80;99.90;;;;;;5064420;28;20199;-63
2022/02/04 13:57:36;;;;;;;2.07;1.00;;;11.80;99.90;;;;;;5059097;28;20307;-63
2022/02/04 14:00:16;;;;;;;3.07;1.20;;;11.70;99.90;;;;;;5074831;28;20223;-63
2022/02/04 14:02:48;;;;;;;1.43;1.20;;;11.60;99.90;;;;;;5076385;28;20235;-63
2022/02/04 14:05:25;;;;;;;1.20;1.10;;;11.40;99.90;;;;;;5075363;28;20208;-63
2022/02/04 14:07:55;;;;;;;1.70;0.77;;;11.30;99.90;;;;;;5075133;28;20209;-63
2022/02/04 14:10:28;;;;;;;1.47;1.03;;;11.20;99.90;;;;;;5075785;28;20200;-63
2022/02/04 14:13:03;;;;;;;2.47;1.00;;;11.20;99.90;;;;;;5074819;28;20704;-65
2022/02/04 14:15:31;;;;;;;3.57;1.20;;;11.20;99.90;;;;;;5075059;28;20257;-63
2022/02/04 14:18:04;;;;;;;1.30;0.80;;;11.30;99.90;;;;;;5075363;28;20208;-63
2022/02/04 14:20:31;;;;;;;1.30;1.13;;;11.30;99.90;;;;;;5075074;28;20715;-63
2022/02/04 14:22:58;;;;;;;0.90;0.67;;;11.30;99.90;;;;;;5075126;28;20615;-63
2022/02/04 14:25:25;;;;;;;6.50;4.30;;;11.30;99.90;;;;;;5075674;28;20672;-63
2022/02/04 14:27:58;;;;;;;1.07;0.70;;;11.20;99.90;;;;;;5074228;28;20216;-63
2022/02/04 14:30:29;;;;;;;4.47;1.13;;;11.10;99.90;;;;;;5074301;28;20256;-62
2022/02/04 14:33:02;;;;;;;1.50;0.90;;;11.10;99.90;;;;;;5075077;28;20579;-63
2022/02/04 14:35:44;;;;;;;1.40;0.90;;;11.20;99.90;;;;;;5074788;28;20216;-63
2022/02/04 14:58:37;;;;;;;3.97;1.70;;;11.30;99.90;;;;;;5077494;22;20237;-63
2022/02/04 15:00:36;;;;;;;1.23;1.00;;;11.20;99.90;;;;;;5033694;28;20678;-64
2022/02/04 15:03:16;;;;;;;4.37;2.57;;;11.20;99.90;;;;;;5033999;28;20236;-64
2022/02/04 15:05:46;;;;;;;1.27;0.97;;;11.20;99.90;;;;;;5033797;28;20217;-62
2022/02/04 15:08:18;;;;;;;1.27;0.93;;;11.20;99.90;;;;;;5033358;28;20580;-64
2022/02/04 15:10:47;;;;;;;1.83;1.10;;;11.10;99.90;;;;;;5033733;28;20214;-62
2022/02/04 15:13:15;;;;;;;2.13;1.00;;;11.00;99.90;;;;;;5033452;28;20226;-62
2022/02/04 15:15:43;;;;;;;1.27;1.13;;;11.00;99.90;;;;;;5033215;28;20670;-63
2022/02/04 15:18:10;;;;;;;1.70;1.20;;;10.90;99.90;;;;;;5032872;28;20429;-66
2022/02/04 15:20:37;;;;;;;2.57;1.23;;;10.90;99.90;;;;;;5033458;28;20311;-66
2022/02/04 15:23:04;;;;;;;1.77;1.37;;;10.90;99.90;;;;;;5033800;28;20242;-64
2022/02/04 15:25:32;;;;;;;2.70;1.10;;;10.80;99.90;;;;;;5034008;28;20256;-65
2022/02/04 15:28:14;;;;;;;3.97;1.00;;;10.80;99.90;;;;;;5033644;28;20206;-65
2022/02/04 15:30:44;;;;;;;2.00;1.10;;;10.70;99.90;;;;;;5033155;28;20226;-65
2022/02/04 15:33:11;;;;;;;2.73;0.90;;;10.70;99.90;;;;;;5033500;28;20709;-65
2022/02/04 15:35:38;;;;;;;2.33;1.40;;;10.70;99.90;;;;;;5033649;28;20471;-63
2022/02/04 15:38:05;;;;;;;2.60;1.33;;;10.70;99.90;;;;;;5032962;28;20210;-64
2022/02/04 15:40:33;;;;;;;2.47;2.00;;;10.60;99.90;;;;;;5032926;28;20214;-63
2022/02/04 15:43:03;;;;;;;4.47;1.60;;;10.50;99.90;;;;;;5032942;28;20288;-66
2022/02/04 15:46:06;;;;;;;1.53;1.40;;;10.50;99.90;;;;;;5033438;28;20264;-65
2022/02/04 15:49:03;;;;;;;1.13;1.03;;;10.50;99.90;;;;;;5033441;28;20244;-67
2022/02/04 15:51:40;;;;;;;1.70;1.13;;;10.40;99.90;;;;;;5032414;28;20295;-64
2022/02/04 15:54:21;;;;;;;3.70;1.40;;;10.40;99.90;;;;;;5033146;28;20237;-65
2022/02/04 15:56:57;;;;;;;6.50;3.30;;;10.40;99.90;;;;;;5033212;28;20226;-62
2022/02/04 15:59:55;;;;;;;0.97;0.97;;;10.40;99.90;;;;;;5033170;28;20251;-67
2022/02/04 16:02:32;;;;;;;1.50;0.90;;;10.40;99.90;;;;;;5033388;28;20235;-66
2022/02/04 16:04:59;;;;;;;1.53;0.80;;;10.50;99.90;;;;;;5033473;28;20236;-66
2022/02/04 16:07:26;;;;;;;0.80;0.73;;;10.50;99.90;;;;;;5032792;28;20585;-67
2022/02/04 16:10:01;;;;;;;2.07;1.10;;;10.50;99.90;;;;;;5032981;28;20234;-67
2022/02/04 16:12:36;;;;;;;2.53;1.27;;;10.50;99.90;;;;;;5032277;28;20259;-66
2022/02/04 16:15:09;;;;;;;0.90;0.80;;;10.50;99.90;;;;;;5033228;28;20236;-67
2022/02/04 16:17:39;;;;;;;1.20;1.00;;;10.40;99.90;;;;;;5032393;28;20209;-68
2022/02/04 16:20:14;;;;;;;2.27;0.80;;;10.40;99.90;;;;;;5032880;28;20316;-67
2022/02/04 16:22:58;;;;;;;2.40;0.93;;;10.40;99.90;;;;;;5032635;28;20228;-66
2022/02/04 16:31:01;;;;;;;3.50;1.50;;;10.40;99.90;;;;;;5032374;28;20681;-67
2022/02/04 16:33:27;;;;;;;2.30;1.40;;;10.30;99.90;;;;;;5032094;28;20230;-66
2022/02/04 16:36:01;;;;;;;2.13;1.50;;;10.30;99.90;;;;;;5032284;28;20206;-66
2022/02/04 16:38:28;;;;;;;2.37;1.77;;;10.10;99.90;;;;;;5032319;28;20217;-67
2022/02/04 16:40:56;;;;;;;2.13;1.60;;;10.10;99.90;;;;;;5032210;28;20213;-66
2022/02/04 16:43:24;;;;;;;1.60;1.10;;;10.00;99.90;;;;;;5031544;28;20320;-67
2022/02/04 16:45:53;;;;;;;3.30;3.00;;;10.00;99.90;;;;;;5031801;28;20209;-67
2022/02/04 16:48:20;;;;;;;1.47;1.13;;;10.00;99.90;;;;;;5032059;28;20218;-72
2022/02/04 16:50:49;;;;;;;0.80;0.70;;;10.00;99.90;;;;;;5031965;28;20202;-65
2022/02/04 16:53:15;;;;;;;1.57;1.20;;;10.00;99.90;;;;;;5031801;28;20230;-65
2022/02/04 16:55:42;;;;;;;3.50;2.13;;;10.00;99.90;;;;;;5032341;28;20229;-65
2022/02/04 16:58:10;;;;;;;2.27;1.63;;;10.00;99.90;;;;;;5031800;28;20221;-65
2022/02/04 17:00:38;;;;;;;1.00;0.90;;;9.90;99.90;;;;;;5032345;28;20677;-64
2022/02/04 17:03:06;;;;;;;1.40;1.10;;;9.90;99.90;;;;;;5034384;28;20230;-65
2022/02/04 17:05:40;;;;;;;2.33;1.10;;;9.90;99.90;;;;;;5035675;28;20625;-64
2022/02/04 17:08:08;;;;;;;1.83;1.13;;;9.80;99.90;;;;;;5035909;28;20206;-65
2022/02/04 17:10:39;;;;;;;1.73;1.20;;;9.80;99.90;;;;;;5036090;28;20297;-65
2022/02/04 17:13:06;;;;;;;1.13;0.80;;;9.80;99.90;;;;;;5035550;28;20223;-66
2022/02/04 17:15:34;;;;;;;3.53;1.60;;;9.90;99.90;;;;;;5035854;28;20206;-66
2022/02/04 17:18:04;;;;;;;2.17;1.00;;;10.00;99.90;;;;;;5035679;28;20283;-64
2022/02/04 17:20:32;;;;;;;1.27;0.93;;;10.00;99.90;;;;;;5036065;28;20210;-65
2022/02/04 17:23:02;;;;;;;1.03;0.90;;;9.90;99.90;;;;;;5035598;28;20228;-65
2022/02/04 17:25:29;;;;;;;1.83;1.20;;;9.90;99.90;;;;;;5035351;28;20398;-66
2022/02/04 17:27:58;;;;;;;1.13;0.90;;;9.90;99.90;;;;;;5035552;28;20205;-67
2022/02/04 17:30:25;;;;;;;1.53;1.00;;;9.90;99.90;;;;;;5035326;28;20210;-66